Venango Regional Airport
KFKL : now visible

Airfield :











YOU CAN JOIN US ON...

 
LOGIN :

Register | Disclaimer

   EN    FR    IT 

 









Legend :    VFR   Marginal VFR   IFR   Intensive IFR   Very Intensive IFR
Visi :
Ceiling :
>= 8 km
>= 3000ft
5 to 8 km
1000 to 3000 ft
1500m to 5 km
500 to 1000 ft
800 to 1500m
200 to 500 ft
< 800m
< 200 ft
Symbols :   Thunderstorms  Fog  Heavy snow  Heavy precipitations  Wind > 20 kt






- Airport Elevation : 1540 ft


KFKL - Venango Regional

CURRENT METAR :
  • 101317Z AUTO 30010G20KT 2 1/2SM -SN BR FEW005 OVC010 M01/M03 A2967 RMK AO2 P0000 FZRANO

EXPIRED METARs :
  • 101306Z AUTO 30012G22KT 1/2SM -SN FZFG FEW005 OVC011 M01/M03 A2967 RMK AO2 P0000 FZRANO
  • 101304Z AUTO 30011G18KT 3/4SM -SN BR OVC011 M01/M03 A2967 RMK AO2 P0000 FZRANO
  • 101249Z AUTO 29014G20KT 2 1/2SM -SN BR SCT008 OVC012 M01/M03 A2965 RMK AO2 VIS 1V4 P0000 FZRANO
  • 101239Z AUTO 30016G25KT 1 1/4SM -SN BR FEW008 OVC014 M02/M03 A2964 RMK AO2 VIS 3/4V3 P0000 FZRANO
  • 101230Z AUTO 29014G23KT 1SM -SN BR FEW004 BKN010 OVC014 M02/M03 A2965 RMK AO2 CIG 007V012 P0000 FZRANO
  • 101215Z AUTO 29012G20KT 2SM -SN BR SCT006 BKN012 OVC017 M02/M03 A2964 RMK AO2 VIS 1V5 P0000 FZRANO
  • 101159Z AUTO 30011G17KT 1/2SM -SN FZFG BKN010 OVC014 M02/M03 A2963 RMK AO2 CIG 005V012 P0000 FZRANO
  • 101148Z AUTO 30014G22KT 1 3/4SM -SN BR SCT009 OVC012 M02/M03 A2962 RMK AO2 P0000 FZRANO
  • 101142Z AUTO 30011G18KT 3SM -SN BR FEW007 OVC012 M02/M03 A2962 RMK AO2 P0000 FZRANO
  • 101136Z AUTO 30013G22KT 1 1/4SM -SN BR FEW007 BKN012 OVC018 M02/M03 A2961 RMK AO2 P0000 FZRANO
  • 101125Z AUTO 31014G23KT 3/4SM -SN BR SCT007 OVC010 M02/M03 A2961 RMK AO2 P0000 FZRANO
  • 101110Z AUTO 30007KT 1SM -SN BR OVC008 M02/M03 A2960 RMK AO2 CIG 005V012 P0000 FZRANO
  • 101056Z AUTO 29009G18KT 1/2SM SN FZFG SCT006 BKN010 OVC014 M02/M03 A2959 RMK AO2 SLP036 P0000 T10171033 FZRANO
  • 101047Z AUTO 29010G18KT 1 1/4SM -SN BR SCT010 BKN014 OVC019 M02/M03 A2958 RMK AO2 P0000 FZRANO
  • 101040Z AUTO 29011G18KT 2SM -SN BR BKN012 BKN019 OVC024 M02/M03 A2958 RMK AO2 P0000 FZRANO

TAF KFKL
Valid from the 10 at 12:00 until the 11 at 12:00 UTC


101123Z 1012/1112 29012G20KT 1SM -SHSN BR BKN008
FM101400 30015G25KT P6SM VCSH OVC025
TEMPO 1014/1016 2SM -SHSN BKN015
FM101800 30016G28KT P6SM OVC040
FM102300 29010G18KT P6SM BKN060
FM110200 28006KT P6SM SCT060



MET'MAP, your aeronautical weather chart ! - Copyright ORBIFLY December 2007 - Disclaimer

ORBIFLY MET'MAP TEAM :

Programming & Development : Alexandra Zaïnal
Concept & original design : Baudouin d'Aumeries
Assistance for programming : Marc-Olivier Méhu
Technical & hardware support : Manuel Goepfert

Contact : metmap@orbifly.com




SOURCES & CREDITS :

   NOAA       Earth
Advisory